Charter Quote
Worldwide +1-877-727-2538 Call
Select Language Lang
SAFETY RELIABILITY EXPERIENCE

Private Jet Charter Services - Yanji Airport (ZYYJ)

Paramount Business Jets offers private jet charter flights and luxury airliner charters to and from Yanji Airport.

AIRPORT INFORMATION
ICAOZYYJ
LOCATIONYanji, China
FACILITY TYPEAIRPORT

At Paramount Business Jets you can hire chartered private jets to and from Yanji Airport with as little as 4 hours of notice. All flights booked via Paramount Business Jets are operated by certified direct air carriers that meet and exceed the FAA part 135 and 121 protocol or a foreign equivalent safety authority. Furthermore, Paramount Business Jets subscribes to ARGUS for their third party safety checks of operators, aircraft, and crews prior each and every flight to and from Yanji Airport and worldwide.

  • Quote a trip using Yanji Airport or call us 24/7 - 365 days a year at +1-877-727-2538.
Questions? Call +1-877-727-2538

METAR Weather Data at Yanji Airport, ZYYJ

STATIONZYYJ
OBSERVEDFri Sep 27, 00:00 UTC
NOWThu Nov 14, 16:22 UTC
AGE53752:22 hr ago
WINDN at 2 mph
VISIBILITYgreater than 7 miles
CLOUDSclear skies
TEMP43°F (6°C)
DEWPT37°F (3°C)
HUMIDITY81%
BAROMETER1017 hPa (30.03 in Hg)
METARZYYJ 270000Z 35001MPS CAVOK 06/03 Q1017 NOSIG

Call us on +1-877-727-2538 (24 Hours), Check our Pricing, or Get a Quick Quote.

Find Airports Near any Location

Processing
...